Terminal Aerodrome Forecast
Issued by NWS Charleston, WV

Current Version | Previous Version | Graphics & Text | Print | Product List | Glossary On
Versions: 1 2 3 4 5 6 7 8 9 10 11 12 13 14 15 16 17 18 19 20 21 22 23 24
658
FTUS41 KRLX 101120
TAFEKN
TAF
KEKN 101120Z 1012/1112 27009G16KT 4SM -SHSN OVC015
     FM101700 27011G19KT 2SM -SHSN OVC015
      TEMPO 1017/1021 3/4SM -SHSN OVC008
     FM111000 28010G21KT 3SM -SHSN BKN015=

USA.gov is the U.S. government's official web portal to all federal, state and local government web resources and services.